createdAt,value
2022-12-06T00:00:13.080Z,40.47
2022-12-06T00:02:42.603Z,39.08
2022-12-06T00:05:12.390Z,39.33
2022-12-06T00:07:44.663Z,40.40
2022-12-06T00:10:14.646Z,39.90
2022-12-06T00:12:44.156Z,33.05
2022-12-06T00:15:14.089Z,37.67
2022-12-06T00:17:43.630Z,41.15
2022-12-06T00:20:13.790Z,38.15
2022-12-06T00:22:49.265Z,38.80
2022-12-06T00:25:19.171Z,42.55
2022-12-06T00:27:48.663Z,42.77
2022-12-06T00:30:18.701Z,44.55
2022-12-06T00:32:48.224Z,42.00
2022-12-06T00:35:17.995Z,45.50
2022-12-06T00:37:50.100Z,61.47
2022-12-06T00:40:19.929Z,53.58
2022-12-06T00:42:49.532Z,50.17
2022-12-06T00:45:19.327Z,64.77
2022-12-06T00:47:48.886Z,60.83
2022-12-06T00:50:18.607Z,64.80
2022-12-06T00:52:50.761Z,57.93
2022-12-06T00:55:20.344Z,68.70
2022-12-06T00:57:50.364Z,67.22
2022-12-06T01:00:20.693Z,71.50
2022-12-06T01:02:50.284Z,74.68
2022-12-06T01:05:19.937Z,76.10
2022-12-06T01:07:52.195Z,61.40
2022-12-06T01:10:21.818Z,70.55
2022-12-06T01:12:51.399Z,80.87
2022-12-06T01:15:21.084Z,64.20
2022-12-06T01:17:50.672Z,62.80
2022-12-06T01:20:20.481Z,57.83
2022-12-06T01:22:52.799Z,63.17
2022-12-06T01:25:25.280Z,52.45
2022-12-06T01:27:55.801Z,64.35
2022-12-06T01:30:25.466Z,46.85
2022-12-06T01:32:55.066Z,51.38
2022-12-06T01:35:24.681Z,50.85
2022-12-06T01:37:58.537Z,52.60
2022-12-06T01:40:31.387Z,45.85
2022-12-06T01:43:00.968Z,48.80
2022-12-06T01:45:30.693Z,45.67
2022-12-06T01:48:00.686Z,55.90
2022-12-06T01:50:32.817Z,56.40
2022-12-06T01:53:07.006Z,50.80
2022-12-06T01:55:39.602Z,52.53
2022-12-06T01:58:12.660Z,47.90
2022-12-06T02:00:42.248Z,58.20
2022-12-06T02:03:15.080Z,50.88
2022-12-06T02:05:45.387Z,47.20
2022-12-06T02:08:18.215Z,53.15
2022-12-06T02:10:47.841Z,55.05
2022-12-06T02:13:17.481Z,50.70
2022-12-06T02:15:55.106Z,48.80
2022-12-06T02:18:40.788Z,40.72
2022-12-06T02:21:17.025Z,43.45
2022-12-06T02:24:09.322Z,41.23
2022-12-06T02:26:44.980Z,51.05
2022-12-06T02:29:44.625Z,44.38
2022-12-06T02:32:20.511Z,41.42
2022-12-06T02:34:56.696Z,42.50
2022-12-06T02:37:30.243Z,41.80
2022-12-06T02:40:03.845Z,37.80
2022-12-06T02:42:37.444Z,43.95
2022-12-06T02:45:12.371Z,36.63
2022-12-06T02:47:45.643Z,38.40
2022-12-06T02:50:19.463Z,43.33
2022-12-06T02:52:52.744Z,39.80
2022-12-06T02:55:24.091Z,44.78
2022-12-06T02:57:56.951Z,39.00
2022-12-06T03:00:38.722Z,43.95
2022-12-06T03:03:34.018Z,44.70
2022-12-06T03:06:25.181Z,48.47
2022-12-06T03:09:05.661Z,46.85
2022-12-06T03:11:40.938Z,41.53
2022-12-06T03:14:14.917Z,39.72
2022-12-06T03:16:49.615Z,42.60
2022-12-06T03:19:23.360Z,44.50
2022-12-06T03:21:58.512Z,42.90
2022-12-06T03:24:29.235Z,42.30
2022-12-06T03:27:00.399Z,41.53
2022-12-06T03:29:31.843Z,51.65
2022-12-06T03:32:03.419Z,67.68
2022-12-06T03:34:39.061Z,85.75
2022-12-06T03:37:10.445Z,68.30
2022-12-06T03:39:44.762Z,89.03
2022-12-06T03:42:14.520Z,80.80
2022-12-06T03:44:44.254Z,83.83
2022-12-06T03:47:16.883Z,83.45
2022-12-06T03:49:50.741Z,65.15
2022-12-06T03:52:20.327Z,79.23
2022-12-06T03:54:49.878Z,106.18
2022-12-06T03:57:19.549Z,64.57
2022-12-06T03:59:49.092Z,127.88
2022-12-06T04:02:18.807Z,99.03
2022-12-06T04:04:51.124Z,69.82
2022-12-06T04:07:21.364Z,82.07
2022-12-06T04:10:03.371Z,86.82
2022-12-06T04:12:46.015Z,76.95
2022-12-06T04:15:15.786Z,73.15
2022-12-06T04:17:58.345Z,81.90
2022-12-06T04:20:51.531Z,85.72
2022-12-06T04:23:19.202Z,86.00
2022-12-06T04:25:49.177Z,109.25
2022-12-06T04:28:31.381Z,81.95
2022-12-06T04:31:17.184Z,111.63
2022-12-06T04:34:03.702Z,96.43
2022-12-06T04:36:48.290Z,112.63
2022-12-06T04:39:21.129Z,90.30
2022-12-06T04:42:03.443Z,90.03
2022-12-06T04:44:33.101Z,79.28
2022-12-06T04:47:02.853Z,70.63
2022-12-06T04:49:32.510Z,77.18
2022-12-06T04:52:04.707Z,87.15
2022-12-06T04:54:34.492Z,99.85
2022-12-06T04:57:04.369Z,111.50
2022-12-06T04:59:34.009Z,87.88
2022-12-06T05:02:03.646Z,79.97
2022-12-06T05:04:33.213Z,76.25
2022-12-06T05:07:05.461Z,89.97
2022-12-06T05:09:35.141Z,115.85
2022-12-06T05:12:04.693Z,74.82
2022-12-06T05:14:34.488Z,61.85
2022-12-06T05:17:04.059Z,68.88
2022-12-06T05:19:33.661Z,74.37
2022-12-06T05:22:05.816Z,77.88
2022-12-06T05:24:35.735Z,59.65
2022-12-06T05:27:05.441Z,71.13
2022-12-06T05:29:35.243Z,82.75
2022-12-06T05:32:04.983Z,62.55
2022-12-06T05:34:34.621Z,68.60
2022-12-06T05:37:06.738Z,76.32
2022-12-06T05:39:36.360Z,78.30
2022-12-06T05:42:06.104Z,80.30
2022-12-06T05:44:35.749Z,61.72
2022-12-06T05:47:05.395Z,105.03
2022-12-06T05:49:35.045Z,93.75
2022-12-06T05:52:09.833Z,83.13
2022-12-06T05:54:39.483Z,65.47
2022-12-06T05:57:09.043Z,71.40
2022-12-06T05:59:38.660Z,84.87
2022-12-06T06:02:08.431Z,90.28
2022-12-06T06:04:38.229Z,96.18
2022-12-06T06:07:10.372Z,79.40
2022-12-06T06:09:39.969Z,80.00
2022-12-06T06:12:12.597Z,82.22
2022-12-06T06:14:42.670Z,83.65
2022-12-06T06:17:12.286Z,77.68
2022-12-06T06:19:42.288Z,100.15
2022-12-06T06:22:14.633Z,91.45
2022-12-06T06:24:45.079Z,89.37
2022-12-06T06:27:14.788Z,86.97
2022-12-06T06:29:45.633Z,79.30
2022-12-06T06:32:15.532Z,77.37
2022-12-06T06:34:45.146Z,79.97
2022-12-06T06:37:17.447Z,64.10
2022-12-06T06:39:47.069Z,62.45
2022-12-06T06:42:17.585Z,58.20
2022-12-06T06:44:47.131Z,63.05
2022-12-06T06:47:16.653Z,71.28
2022-12-06T06:49:46.213Z,67.40
2022-12-06T06:52:18.453Z,55.25
2022-12-06T06:54:48.107Z,59.37
2022-12-06T06:57:18.402Z,55.88
2022-12-06T06:59:48.011Z,52.08
2022-12-06T07:02:19.221Z,56.08
2022-12-06T07:04:49.914Z,54.20
2022-12-06T07:07:22.114Z,52.40
2022-12-06T07:09:51.842Z,57.25
2022-12-06T07:12:21.365Z,53.45
2022-12-06T07:14:51.022Z,53.97
2022-12-06T07:17:20.611Z,49.88
2022-12-06T07:19:50.436Z,46.90
2022-12-06T07:22:22.615Z,49.10
2022-12-06T07:24:52.546Z,49.42
2022-12-06T07:27:22.221Z,55.70
2022-12-06T07:29:51.853Z,62.20
2022-12-06T07:32:21.391Z,60.63
2022-12-06T07:34:51.055Z,61.97
2022-12-06T07:37:23.351Z,52.92
2022-12-06T07:39:52.894Z,57.35
2022-12-06T07:42:34.872Z,65.43
2022-12-06T07:45:05.625Z,49.00
2022-12-06T07:47:36.537Z,58.60
2022-12-06T07:50:07.123Z,64.50
2022-12-06T07:52:40.322Z,50.70
2022-12-06T07:55:12.084Z,59.40
2022-12-06T07:57:43.998Z,55.65
2022-12-06T08:00:16.042Z,58.38
2022-12-06T08:02:45.956Z,68.28
2022-12-06T08:05:15.485Z,63.83
2022-12-06T08:07:47.813Z,54.22
2022-12-06T08:10:17.472Z,64.03
2022-12-06T08:12:47.030Z,60.95
2022-12-06T08:15:16.608Z,61.33
2022-12-06T08:17:46.807Z,64.57
2022-12-06T08:20:16.400Z,56.38
2022-12-06T08:22:48.580Z,59.05
2022-12-06T08:25:18.486Z,61.63
2022-12-06T08:27:47.966Z,56.78
2022-12-06T08:30:17.934Z,50.67
2022-12-06T08:32:47.478Z,51.63
2022-12-06T08:35:17.198Z,63.72
2022-12-06T08:37:49.622Z,45.27
2022-12-06T08:40:19.363Z,59.13
2022-12-06T08:42:48.918Z,60.27
2022-12-06T08:45:18.727Z,65.53
2022-12-06T08:47:48.322Z,70.22
2022-12-06T08:50:17.865Z,68.57
2022-12-06T08:52:50.090Z,54.92
2022-12-06T08:55:19.843Z,63.40
2022-12-06T08:57:49.374Z,59.58
2022-12-06T09:00:20.213Z,59.15
2022-12-06T09:02:49.811Z,62.47
2022-12-06T09:05:19.541Z,59.90
2022-12-06T09:07:51.837Z,66.28
2022-12-06T09:10:21.687Z,57.08
2022-12-06T09:12:51.238Z,61.72
2022-12-06T09:15:20.986Z,55.53
2022-12-06T09:17:50.554Z,57.72
2022-12-06T09:20:20.660Z,61.72
2022-12-06T09:22:52.793Z,54.25
2022-12-06T09:25:22.367Z,73.45
2022-12-06T09:27:51.924Z,79.20
2022-12-06T09:30:21.515Z,77.32
2022-12-06T09:32:51.520Z,75.05
2022-12-06T09:35:25.082Z,74.82
2022-12-06T09:37:57.657Z,81.80
2022-12-06T09:40:31.939Z,72.55
2022-12-06T09:43:10.591Z,73.40
2022-12-06T09:45:59.250Z,72.78
2022-12-06T09:48:50.372Z,80.50
2022-12-06T09:51:33.162Z,82.68
2022-12-06T09:54:15.768Z,71.05
2022-12-06T09:56:49.917Z,79.13
2022-12-06T09:59:25.509Z,72.78
2022-12-06T10:02:05.787Z,71.28
2022-12-06T10:04:59.450Z,77.22
2022-12-06T10:07:33.712Z,75.13
2022-12-06T10:10:17.350Z,91.68
2022-12-06T10:12:56.807Z,62.55
2022-12-06T10:15:32.297Z,61.70
2022-12-06T10:18:20.312Z,65.10
2022-12-06T10:20:54.852Z,84.28
2022-12-06T10:23:33.113Z,66.00
2022-12-06T10:26:14.212Z,73.97
2022-12-06T10:28:47.305Z,74.07
2022-12-06T10:31:25.007Z,70.27
2022-12-06T10:33:57.856Z,61.20
2022-12-06T10:36:39.599Z,75.20
2022-12-06T10:39:17.373Z,77.40
2022-12-06T10:41:51.379Z,77.72
2022-12-06T10:44:25.933Z,72.95
2022-12-06T10:47:05.041Z,79.30
2022-12-06T10:49:52.041Z,81.18
2022-12-06T10:52:34.598Z,69.63
2022-12-06T10:55:16.442Z,68.43
2022-12-06T10:57:52.007Z,76.30
2022-12-06T11:00:24.520Z,63.40
2022-12-06T11:02:59.226Z,79.95
2022-12-06T11:05:31.524Z,90.32
2022-12-06T11:08:06.492Z,77.53
2022-12-06T11:10:37.317Z,84.80
2022-12-06T11:13:20.409Z,76.70
2022-12-06T11:15:54.090Z,70.95
2022-12-06T11:18:24.136Z,64.68
2022-12-06T11:20:58.613Z,61.87
2022-12-06T11:23:32.726Z,63.00
2022-12-06T11:26:07.723Z,66.20
2022-12-06T11:28:42.011Z,63.80
2022-12-06T11:31:23.402Z,71.20
2022-12-06T11:33:53.195Z,64.77
2022-12-06T11:36:23.280Z,64.32
2022-12-06T11:38:52.833Z,54.17
2022-12-06T11:41:25.469Z,53.30
2022-12-06T11:43:58.579Z,52.50
2022-12-06T11:46:28.754Z,57.25
2022-12-06T11:49:01.663Z,54.42
2022-12-06T11:51:31.211Z,54.45
2022-12-06T11:54:03.931Z,52.22
2022-12-06T11:56:35.705Z,47.42
2022-12-06T12:02:07.179Z,31.20
2022-12-06T12:04:39.638Z,35.45
2022-12-06T12:07:15.552Z,37.10
2022-12-06T12:09:52.848Z,30.88
2022-12-06T12:12:25.207Z,27.77
2022-12-06T12:14:59.653Z,25.73
2022-12-06T12:17:34.333Z,26.67
2022-12-06T12:20:06.967Z,24.17
2022-12-06T12:22:38.866Z,29.45
2022-12-06T12:25:26.050Z,25.67
2022-12-06T12:27:56.898Z,30.08
2022-12-06T12:30:32.700Z,24.95
2022-12-06T12:33:19.074Z,25.63
2022-12-06T12:35:50.686Z,27.23
2022-12-06T12:38:26.420Z,27.30
2022-12-06T12:40:58.171Z,24.58
2022-12-06T12:43:30.006Z,21.52
2022-12-06T12:46:09.807Z,24.23
2022-12-06T12:48:44.073Z,21.08
2022-12-06T12:51:47.839Z,19.05
2022-12-06T12:54:28.025Z,24.50
2022-12-06T12:56:58.515Z,31.55
2022-12-06T12:59:29.708Z,26.67
2022-12-06T13:02:01.723Z,25.50
2022-12-06T13:04:43.044Z,23.73
2022-12-06T13:07:22.865Z,19.52
2022-12-06T13:09:59.825Z,19.50
2022-12-06T13:12:33.488Z,19.17
2022-12-06T13:15:06.843Z,19.17
2022-12-06T13:17:38.777Z,18.92
2022-12-06T13:20:23.774Z,18.40
2022-12-06T13:22:55.387Z,17.25
2022-12-06T13:25:25.030Z,20.70
2022-12-06T13:28:00.890Z,21.77
2022-12-06T13:30:36.941Z,22.65
2022-12-06T13:33:09.007Z,26.00
2022-12-06T13:35:43.762Z,21.45
2022-12-06T13:38:27.117Z,25.35
2022-12-06T13:40:57.708Z,24.80
2022-12-06T13:43:54.201Z,23.92
2022-12-06T13:46:29.483Z,23.63
2022-12-06T13:48:59.718Z,24.35
2022-12-06T13:51:51.185Z,22.98
2022-12-06T13:54:38.789Z,25.15
2022-12-06T13:57:27.553Z,23.33
2022-12-06T13:59:57.201Z,19.20
2022-12-06T14:02:53.938Z,20.95
2022-12-06T14:08:25.719Z,19.67
2022-12-06T14:10:55.362Z,19.00
2022-12-06T14:13:25.039Z,17.90
2022-12-06T14:15:55.152Z,22.05
2022-12-06T14:18:26.911Z,16.60
2022-12-06T14:20:59.033Z,20.75
2022-12-06T14:23:38.516Z,19.27
2022-12-06T14:26:16.609Z,17.45
2022-12-06T14:28:46.634Z,23.70
2022-12-06T14:31:28.260Z,24.40
2022-12-06T14:33:58.848Z,22.35
2022-12-06T14:36:31.249Z,21.27
2022-12-06T14:39:05.963Z,23.38
2022-12-06T14:41:51.607Z,22.67
2022-12-06T14:44:22.069Z,24.27
2022-12-06T14:46:52.522Z,22.95
2022-12-06T14:49:36.527Z,33.13
2022-12-06T14:52:19.091Z,23.47
2022-12-06T14:54:52.117Z,22.10
2022-12-06T14:57:30.531Z,24.25
2022-12-06T15:00:15.163Z,22.50
2022-12-06T15:03:23.967Z,22.13
2022-12-06T15:05:57.523Z,23.65
2022-12-06T15:08:36.671Z,27.35
2022-12-06T15:11:47.294Z,28.23
2022-12-06T15:14:18.753Z,27.35
2022-12-06T15:16:58.756Z,26.27
2022-12-06T15:19:28.907Z,36.75
2022-12-06T15:21:58.437Z,32.45
2022-12-06T15:24:29.163Z,29.33
2022-12-06T15:27:01.295Z,28.50
2022-12-06T15:29:30.937Z,29.48
2022-12-06T15:32:00.499Z,32.97
2022-12-06T15:34:31.460Z,28.52
2022-12-06T15:37:37.452Z,26.55
2022-12-06T15:39:52.587Z,23.13
2022-12-06T15:42:25.534Z,21.60
2022-12-06T15:44:55.369Z,22.70
2022-12-06T15:47:24.900Z,21.52
2022-12-06T15:49:58.214Z,26.13
2022-12-06T15:52:28.349Z,23.92
2022-12-06T15:54:57.869Z,27.00
2022-12-06T15:57:30.104Z,28.47
2022-12-06T15:59:59.736Z,27.55
2022-12-06T16:02:29.322Z,22.33
2022-12-06T16:04:59.119Z,21.35
2022-12-06T16:07:28.904Z,27.17
2022-12-06T16:09:58.546Z,24.13
2022-12-06T16:12:50.822Z,20.97
2022-12-06T16:15:20.414Z,19.83
2022-12-06T16:17:49.929Z,16.67
2022-12-06T16:20:35.557Z,29.20
2022-12-06T16:23:21.122Z,16.98
2022-12-06T16:25:51.307Z,20.60
2022-12-06T16:28:23.489Z,23.15
2022-12-06T16:30:53.140Z,20.53
2022-12-06T16:33:24.336Z,19.23
2022-12-06T16:35:55.750Z,24.77
2022-12-06T16:38:25.524Z,22.70
2022-12-06T16:40:55.080Z,21.92
2022-12-06T16:43:27.311Z,25.98
2022-12-06T16:46:04.843Z,23.97
2022-12-06T16:48:35.489Z,20.67
2022-12-06T16:51:05.140Z,24.52
2022-12-06T16:53:34.779Z,26.23
2022-12-06T16:56:04.485Z,22.60
2022-12-06T16:58:36.937Z,25.05
2022-12-06T17:01:07.547Z,23.92
2022-12-06T17:03:37.175Z,24.42
2022-12-06T17:06:07.193Z,23.45
2022-12-06T17:08:36.860Z,28.10
2022-12-06T17:11:18.683Z,24.10
2022-12-06T17:13:50.797Z,22.30
2022-12-06T17:16:20.598Z,21.87
2022-12-06T17:18:50.579Z,19.35
2022-12-06T17:21:20.222Z,20.27
2022-12-06T17:23:49.811Z,24.27
2022-12-06T17:26:19.553Z,23.08
2022-12-06T17:28:51.689Z,22.10
2022-12-06T17:31:21.319Z,19.50
2022-12-06T17:33:51.667Z,21.98
2022-12-06T17:36:25.172Z,24.92
2022-12-06T17:38:56.789Z,23.17
2022-12-06T17:41:40.120Z,20.17
2022-12-06T17:44:13.126Z,22.00
2022-12-06T17:46:43.595Z,21.40
2022-12-06T17:49:16.541Z,23.38
2022-12-06T17:51:46.298Z,22.60
2022-12-06T17:54:16.469Z,24.73
2022-12-06T17:56:46.972Z,23.35
2022-12-06T17:59:22.402Z,20.42
2022-12-06T18:04:44.046Z,24.25
2022-12-06T18:07:14.312Z,21.20
2022-12-06T18:09:44.000Z,23.97
2022-12-06T18:12:14.128Z,22.27
2022-12-06T18:14:46.353Z,23.55
2022-12-06T18:17:16.348Z,23.83
2022-12-06T18:19:47.165Z,20.30
2022-12-06T18:22:17.021Z,24.33
2022-12-06T18:24:47.030Z,27.70
2022-12-06T18:27:17.572Z,22.53
2022-12-06T18:29:49.801Z,22.15
2022-12-06T18:32:19.507Z,19.35
2022-12-06T18:34:49.101Z,25.85
2022-12-06T18:37:18.610Z,23.58
2022-12-06T18:39:48.397Z,22.42
2022-12-06T18:42:18.011Z,21.77
2022-12-06T18:44:54.993Z,20.00
2022-12-06T18:47:27.612Z,19.87
2022-12-06T18:49:57.264Z,19.40
2022-12-06T18:52:28.069Z,19.80
2022-12-06T18:54:57.668Z,21.95
2022-12-06T18:57:31.876Z,22.30
2022-12-06T19:00:05.058Z,24.00
2022-12-06T19:02:34.998Z,17.33
2022-12-06T19:05:04.659Z,19.45
2022-12-06T19:07:34.254Z,17.60
2022-12-06T19:10:04.153Z,18.25
2022-12-06T19:12:33.918Z,16.92
2022-12-06T19:15:06.524Z,18.35
2022-12-06T19:17:36.166Z,18.55
2022-12-06T19:20:05.799Z,19.52
2022-12-06T19:22:35.487Z,20.42
2022-12-06T19:25:05.100Z,19.88
2022-12-06T19:27:34.897Z,19.95
2022-12-06T19:30:08.951Z,20.85
2022-12-06T19:32:38.642Z,20.53
2022-12-06T19:35:09.035Z,18.33
2022-12-06T19:37:38.579Z,19.50
2022-12-06T19:40:09.705Z,25.63
2022-12-06T19:42:51.855Z,31.00
2022-12-06T19:45:24.023Z,20.92
2022-12-06T19:47:53.597Z,22.65
2022-12-06T19:50:23.137Z,27.23
2022-12-06T19:52:53.035Z,26.05
2022-12-06T19:55:22.647Z,27.48
2022-12-06T19:57:52.411Z,25.25
2022-12-06T20:00:24.613Z,24.13
2022-12-06T20:02:54.345Z,26.23
2022-12-06T20:05:23.952Z,26.20
2022-12-06T20:07:53.523Z,31.95
2022-12-06T20:10:23.172Z,27.77
2022-12-06T20:12:52.714Z,27.35
2022-12-06T20:15:25.014Z,26.05
2022-12-06T20:17:54.675Z,26.97
2022-12-06T20:20:24.231Z,30.17
2022-12-06T20:22:53.756Z,29.25
2022-12-06T20:25:23.306Z,31.10
2022-12-06T20:27:56.803Z,30.30
2022-12-06T20:30:30.645Z,30.95
2022-12-06T20:33:00.473Z,30.30
2022-12-06T20:35:30.294Z,33.78
2022-12-06T20:38:00.080Z,32.22
2022-12-06T20:40:31.583Z,36.27
2022-12-06T20:43:01.476Z,43.67
2022-12-06T20:45:33.595Z,36.15
2022-12-06T20:48:03.211Z,40.90
2022-12-06T20:50:32.748Z,40.75
2022-12-06T20:53:02.413Z,39.42
2022-12-06T20:55:32.191Z,42.58
2022-12-06T20:58:01.881Z,40.53
2022-12-06T21:00:34.073Z,37.93
2022-12-06T21:03:03.673Z,42.97
2022-12-06T21:05:33.261Z,37.53
2022-12-06T21:08:02.858Z,38.83
2022-12-06T21:10:32.505Z,44.05
2022-12-06T21:13:05.976Z,43.80
2022-12-06T21:15:38.555Z,41.00
2022-12-06T21:18:08.178Z,42.70
2022-12-06T21:20:40.134Z,47.65
2022-12-06T21:23:09.759Z,54.05
2022-12-06T21:25:39.679Z,49.58
2022-12-06T21:28:09.230Z,50.63
2022-12-06T21:30:41.516Z,49.40
2022-12-06T21:33:11.130Z,51.42
2022-12-06T21:35:40.735Z,58.78
2022-12-06T21:38:10.273Z,53.88
2022-12-06T21:40:39.909Z,61.20
2022-12-06T21:43:09.880Z,61.08
2022-12-06T21:45:43.131Z,60.53
2022-12-06T21:48:12.714Z,59.90
2022-12-06T21:50:42.688Z,57.35
2022-12-06T21:53:12.278Z,68.55
2022-12-06T21:55:42.648Z,57.33
2022-12-06T21:58:12.260Z,64.50
2022-12-06T22:00:44.423Z,62.70
2022-12-06T22:03:19.206Z,71.30
2022-12-06T22:05:52.174Z,72.88
2022-12-06T22:08:21.833Z,66.72
2022-12-06T22:10:52.613Z,73.82
2022-12-06T22:13:22.245Z,70.47
2022-12-06T22:15:54.392Z,76.70
2022-12-06T22:18:24.018Z,72.00
2022-12-06T22:21:03.302Z,74.22
2022-12-06T22:23:33.541Z,75.65
2022-12-06T22:26:03.510Z,73.38
2022-12-06T22:28:33.063Z,70.75
2022-12-06T22:31:14.202Z,74.00
2022-12-06T22:33:44.500Z,73.10
2022-12-06T22:36:17.683Z,80.15
2022-12-06T22:38:50.361Z,76.32
2022-12-06T22:41:20.446Z,80.60
2022-12-06T22:43:53.324Z,74.63
2022-12-06T22:46:26.527Z,84.13
2022-12-06T22:48:56.381Z,75.70
2022-12-06T22:51:28.144Z,89.78
2022-12-06T22:53:59.135Z,79.43
2022-12-06T22:56:29.580Z,77.93
2022-12-06T22:59:00.550Z,72.47
2022-12-06T23:01:34.232Z,83.63
2022-12-06T23:04:05.669Z,83.35
2022-12-06T23:06:37.011Z,80.45
2022-12-06T23:09:07.282Z,78.82
2022-12-06T23:11:38.266Z,86.33
2022-12-06T23:14:08.323Z,83.32
2022-12-06T23:16:41.598Z,84.35
2022-12-06T23:19:12.405Z,83.43
2022-12-06T23:21:42.535Z,85.05
2022-12-06T23:24:14.440Z,78.90
2022-12-06T23:26:45.572Z,78.85
2022-12-06T23:29:15.470Z,76.95
2022-12-06T23:31:49.491Z,77.73
2022-12-06T23:34:22.390Z,81.37
2022-12-06T23:36:52.402Z,78.05
2022-12-06T23:39:22.232Z,76.53
2022-12-06T23:41:51.780Z,88.18
2022-12-06T23:44:21.487Z,75.85
2022-12-06T23:46:53.662Z,74.82
2022-12-06T23:49:24.215Z,76.53
2022-12-06T23:51:53.799Z,77.00
2022-12-06T23:54:23.427Z,75.38
2022-12-06T23:56:53.031Z,81.45
2022-12-06T23:59:22.549Z,84.63
